sensor_id;sensor_type;location;lat;lon;timestamp;P1;durP1;ratioP1;P2;durP2;ratioP2
65658;SDS011;60181;53.258;6.932;2023-03-14T00:00:09;31.90;;;4.40;;
65658;SDS011;60181;53.258;6.932;2023-03-14T00:04:06;31.90;;;4.40;;
65658;SDS011;60181;53.258;6.932;2023-03-14T00:08:10;30.90;;;4.40;;
65658;SDS011;60181;53.258;6.932;2023-03-14T00:12:14;30.90;;;4.40;;
65658;SDS011;60181;53.258;6.932;2023-03-14T00:16:19;30.90;;;4.40;;
65658;SDS011;60181;53.258;6.932;2023-03-14T00:20:22;27.80;;;4.40;;
65658;SDS011;60181;53.258;6.932;2023-03-14T00:24:26;27.80;;;4.40;;
65658;SDS011;60181;53.258;6.932;2023-03-14T00:28:30;35.20;;;4.00;;
65658;SDS011;60181;53.258;6.932;2023-03-14T00:32:34;35.20;;;4.00;;
65658;SDS011;60181;53.258;6.932;2023-03-14T00:36:38;35.20;;;4.00;;
65658;SDS011;60181;53.258;6.932;2023-03-14T00:40:42;31.20;;;4.10;;
65658;SDS011;60181;53.258;6.932;2023-03-14T00:44:46;31.20;;;4.10;;
65658;SDS011;60181;53.258;6.932;2023-03-14T00:48:50;25.60;;;3.90;;
65658;SDS011;60181;53.258;6.932;2023-03-14T00:52:54;25.60;;;3.90;;
65658;SDS011;60181;53.258;6.932;2023-03-14T00:56:58;25.60;;;3.90;;
65658;SDS011;60181;53.258;6.932;2023-03-14T01:01:06;28.30;;;3.80;;
65658;SDS011;60181;53.258;6.932;2023-03-14T01:05:07;28.30;;;3.80;;
65658;SDS011;60181;53.258;6.932;2023-03-14T01:09:10;29.30;;;4.20;;
65658;SDS011;60181;53.258;6.932;2023-03-14T01:13:14;29.30;;;4.20;;
65658;SDS011;60181;53.258;6.932;2023-03-14T01:17:18;28.40;;;3.90;;
65658;SDS011;60181;53.258;6.932;2023-03-14T01:21:23;28.40;;;3.90;;
65658;SDS011;60181;53.258;6.932;2023-03-14T01:25:26;28.40;;;3.90;;
65658;SDS011;60181;53.258;6.932;2023-03-14T01:29:30;26.50;;;3.80;;
65658;SDS011;60181;53.258;6.932;2023-03-14T01:33:34;26.50;;;3.80;;
65658;SDS011;60181;53.258;6.932;2023-03-14T01:37:38;27.60;;;3.70;;
65658;SDS011;60181;53.258;6.932;2023-03-14T01:41:42;27.60;;;3.70;;
65658;SDS011;60181;53.258;6.932;2023-03-14T01:49:58;30.80;;;4.00;;
65658;SDS011;60181;53.258;6.932;2023-03-14T01:53:56;30.80;;;4.00;;
65658;SDS011;60181;53.258;6.932;2023-03-14T01:57:59;25.60;;;3.70;;
65658;SDS011;60181;53.258;6.932;2023-03-14T02:02:02;25.60;;;3.70;;
65658;SDS011;60181;53.258;6.932;2023-03-14T02:06:06;25.60;;;3.70;;
65658;SDS011;60181;53.258;6.932;2023-03-14T02:10:10;24.70;;;3.70;;
65658;SDS011;60181;53.258;6.932;2023-03-14T02:14:25;24.70;;;3.70;;
65658;SDS011;60181;53.258;6.932;2023-03-14T02:18:18;19.80;;;3.40;;
65658;SDS011;60181;53.258;6.932;2023-03-14T02:22:22;19.80;;;3.40;;
65658;SDS011;60181;53.258;6.932;2023-03-14T02:27:00;19.80;;;3.40;;
65658;SDS011;60181;53.258;6.932;2023-03-14T02:30:30;21.80;;;3.80;;
65658;SDS011;60181;53.258;6.932;2023-03-14T02:34:34;21.80;;;3.80;;
65658;SDS011;60181;53.258;6.932;2023-03-14T02:38:51;19.30;;;3.20;;
65658;SDS011;60181;53.258;6.932;2023-03-14T02:42:42;19.30;;;3.20;;
65658;SDS011;60181;53.258;6.932;2023-03-14T02:46:46;19.30;;;3.20;;
65658;SDS011;60181;53.258;6.932;2023-03-14T02:50:51;21.00;;;3.30;;
65658;SDS011;60181;53.258;6.932;2023-03-14T02:54:54;21.00;;;3.30;;
65658;SDS011;60181;53.258;6.932;2023-03-14T02:58:58;17.60;;;2.80;;
65658;SDS011;60181;53.258;6.932;2023-03-14T03:03:02;17.60;;;2.80;;
65658;SDS011;60181;53.258;6.932;2023-03-14T03:07:06;17.60;;;2.80;;
65658;SDS011;60181;53.258;6.932;2023-03-14T03:11:10;17.60;;;2.70;;
65658;SDS011;60181;53.258;6.932;2023-03-14T03:15:14;17.60;;;2.70;;
65658;SDS011;60181;53.258;6.932;2023-03-14T03:19:18;18.00;;;2.90;;
65658;SDS011;60181;53.258;6.932;2023-03-14T03:23:22;18.00;;;2.90;;
65658;SDS011;60181;53.258;6.932;2023-03-14T03:27:26;18.00;;;2.90;;
65658;SDS011;60181;53.258;6.932;2023-03-14T03:31:30;16.20;;;2.60;;
65658;SDS011;60181;53.258;6.932;2023-03-14T03:35:34;16.20;;;2.60;;
65658;SDS011;60181;53.258;6.932;2023-03-14T03:39:38;17.90;;;2.80;;
65658;SDS011;60181;53.258;6.932;2023-03-14T03:43:42;17.90;;;2.80;;
65658;SDS011;60181;53.258;6.932;2023-03-14T03:47:46;19.50;;;2.70;;
65658;SDS011;60181;53.258;6.932;2023-03-14T03:51:50;19.50;;;2.70;;
65658;SDS011;60181;53.258;6.932;2023-03-14T03:55:54;19.50;;;2.70;;
65658;SDS011;60181;53.258;6.932;2023-03-14T03:59:58;12.50;;;2.50;;
65658;SDS011;60181;53.258;6.932;2023-03-14T04:04:02;12.50;;;2.50;;
65658;SDS011;60181;53.258;6.932;2023-03-14T04:08:06;16.80;;;3.20;;
65658;SDS011;60181;53.258;6.932;2023-03-14T04:12:10;16.80;;;3.20;;
65658;SDS011;60181;53.258;6.932;2023-03-14T04:16:15;16.80;;;3.20;;
65658;SDS011;60181;53.258;6.932;2023-03-14T04:20:18;15.10;;;3.10;;
65658;SDS011;60181;53.258;6.932;2023-03-14T04:24:22;15.10;;;3.10;;
65658;SDS011;60181;53.258;6.932;2023-03-14T04:28:26;19.70;;;3.30;;
65658;SDS011;60181;53.258;6.932;2023-03-14T04:32:30;19.70;;;3.30;;
65658;SDS011;60181;53.258;6.932;2023-03-14T04:36:34;19.70;;;3.30;;
65658;SDS011;60181;53.258;6.932;2023-03-14T04:40:38;13.10;;;3.20;;
65658;SDS011;60181;53.258;6.932;2023-03-14T04:44:42;13.10;;;3.20;;
65658;SDS011;60181;53.258;6.932;2023-03-14T04:48:46;15.40;;;3.20;;
65658;SDS011;60181;53.258;6.932;2023-03-14T04:52:50;15.40;;;3.20;;
65658;SDS011;60181;53.258;6.932;2023-03-14T04:56:54;15.40;;;3.20;;
65658;SDS011;60181;53.258;6.932;2023-03-14T05:01:04;9.50;;;2.90;;
65658;SDS011;60181;53.258;6.932;2023-03-14T05:05:02;9.50;;;2.90;;
65658;SDS011;60181;53.258;6.932;2023-03-14T05:09:06;13.80;;;3.20;;
65658;SDS011;60181;53.258;6.932;2023-03-14T05:13:10;13.80;;;3.20;;
65658;SDS011;60181;53.258;6.932;2023-03-14T05:17:14;13.80;;;3.20;;
65658;SDS011;60181;53.258;6.932;2023-03-14T05:21:18;14.90;;;3.30;;
65658;SDS011;60181;53.258;6.932;2023-03-14T05:25:22;14.90;;;3.30;;
65658;SDS011;60181;53.258;6.932;2023-03-14T05:29:26;12.80;;;3.20;;
65658;SDS011;60181;53.258;6.932;2023-03-14T05:33:30;12.80;;;3.20;;
65658;SDS011;60181;53.258;6.932;2023-03-14T05:37:34;12.50;;;2.90;;
65658;SDS011;60181;53.258;6.932;2023-03-14T05:41:38;12.50;;;2.90;;
65658;SDS011;60181;53.258;6.932;2023-03-14T05:45:42;12.50;;;2.90;;
65658;SDS011;60181;53.258;6.932;2023-03-14T05:49:46;8.40;;;2.60;;
65658;SDS011;60181;53.258;6.932;2023-03-14T05:53:50;8.40;;;2.60;;
65658;SDS011;60181;53.258;6.932;2023-03-14T05:57:54;8.20;;;2.60;;
65658;SDS011;60181;53.258;6.932;2023-03-14T06:01:58;8.20;;;2.60;;
65658;SDS011;60181;53.258;6.932;2023-03-14T06:06:02;8.20;;;2.60;;
65658;SDS011;60181;53.258;6.932;2023-03-14T06:10:06;9.30;;;2.40;;
65658;SDS011;60181;53.258;6.932;2023-03-14T06:14:10;9.30;;;2.40;;
65658;SDS011;60181;53.258;6.932;2023-03-14T06:18:14;8.60;;;2.70;;
65658;SDS011;60181;53.258;6.932;2023-03-14T06:22:18;8.60;;;2.70;;
65658;SDS011;60181;53.258;6.932;2023-03-14T06:26:22;8.60;;;2.70;;
65658;SDS011;60181;53.258;6.932;2023-03-14T06:30:26;9.70;;;3.50;;
65658;SDS011;60181;53.258;6.932;2023-03-14T06:34:30;9.70;;;3.50;;
65658;SDS011;60181;53.258;6.932;2023-03-14T06:38:34;7.90;;;3.50;;
65658;SDS011;60181;53.258;6.932;2023-03-14T06:42:38;7.90;;;3.50;;
65658;SDS011;60181;53.258;6.932;2023-03-14T06:46:42;7.90;;;3.50;;
65658;SDS011;60181;53.258;6.932;2023-03-14T06:50:47;12.40;;;5.00;;
65658;SDS011;60181;53.258;6.932;2023-03-14T06:54:50;12.40;;;5.00;;
65658;SDS011;60181;53.258;6.932;2023-03-14T06:58:54;12.50;;;4.60;;
65658;SDS011;60181;53.258;6.932;2023-03-14T07:02:58;12.50;;;4.60;;
65658;SDS011;60181;53.258;6.932;2023-03-14T07:07:02;12.50;;;4.60;;
65658;SDS011;60181;53.258;6.932;2023-03-14T07:11:06;11.30;;;4.10;;
65658;SDS011;60181;53.258;6.932;2023-03-14T07:15:10;11.30;;;4.10;;
65658;SDS011;60181;53.258;6.932;2023-03-14T07:19:14;10.50;;;3.90;;
65658;SDS011;60181;53.258;6.932;2023-03-14T07:23:18;10.50;;;3.90;;
65658;SDS011;60181;53.258;6.932;2023-03-14T07:27:22;10.50;;;3.90;;
65658;SDS011;60181;53.258;6.932;2023-03-14T07:31:26;11.60;;;4.80;;
65658;SDS011;60181;53.258;6.932;2023-03-14T07:35:30;11.60;;;4.80;;
65658;SDS011;60181;53.258;6.932;2023-03-14T07:39:34;11.70;;;4.90;;
65658;SDS011;60181;53.258;6.932;2023-03-14T07:43:38;11.70;;;4.90;;
65658;SDS011;60181;53.258;6.932;2023-03-14T07:47:42;9.60;;;3.70;;
65658;SDS011;60181;53.258;6.932;2023-03-14T07:51:48;9.60;;;3.70;;
65658;SDS011;60181;53.258;6.932;2023-03-14T07:59:53;8.80;;;3.50;;
65658;SDS011;60181;53.258;6.932;2023-03-14T08:03:58;8.80;;;3.50;;
65658;SDS011;60181;53.258;6.932;2023-03-14T08:08:02;8.80;;;3.40;;
65658;SDS011;60181;53.258;6.932;2023-03-14T08:12:06;8.80;;;3.40;;
65658;SDS011;60181;53.258;6.932;2023-03-14T08:16:09;8.80;;;3.40;;
65658;SDS011;60181;53.258;6.932;2023-03-14T08:20:13;10.40;;;3.80;;
65658;SDS011;60181;53.258;6.932;2023-03-14T08:24:17;10.40;;;3.80;;
65658;SDS011;60181;53.258;6.932;2023-03-14T08:28:21;14.00;;;4.30;;
65658;SDS011;60181;53.258;6.932;2023-03-14T08:32:25;14.00;;;4.30;;
65658;SDS011;60181;53.258;6.932;2023-03-14T08:36:29;14.00;;;4.30;;
65658;SDS011;60181;53.258;6.932;2023-03-14T08:40:33;10.50;;;3.60;;
65658;SDS011;60181;53.258;6.932;2023-03-14T08:44:37;10.50;;;3.60;;
65658;SDS011;60181;53.258;6.932;2023-03-14T08:48:41;9.90;;;3.60;;
65658;SDS011;60181;53.258;6.932;2023-03-14T08:52:45;9.90;;;3.60;;
65658;SDS011;60181;53.258;6.932;2023-03-14T08:56:49;9.90;;;3.60;;
65658;SDS011;60181;53.258;6.932;2023-03-14T09:00:53;10.40;;;3.50;;
65658;SDS011;60181;53.258;6.932;2023-03-14T09:04:57;10.40;;;3.50;;
65658;SDS011;60181;53.258;6.932;2023-03-14T09:09:02;11.70;;;3.60;;
65658;SDS011;60181;53.258;6.932;2023-03-14T09:13:05;11.70;;;3.60;;
65658;SDS011;60181;53.258;6.932;2023-03-14T09:17:09;11.70;;;3.60;;
65658;SDS011;60181;53.258;6.932;2023-03-14T09:21:13;9.30;;;3.10;;
65658;SDS011;60181;53.258;6.932;2023-03-14T09:25:17;9.30;;;3.10;;
65658;SDS011;60181;53.258;6.932;2023-03-14T09:29:21;6.80;;;2.60;;
65658;SDS011;60181;53.258;6.932;2023-03-14T09:33:25;6.80;;;2.60;;
65658;SDS011;60181;53.258;6.932;2023-03-14T09:37:29;7.40;;;2.80;;
65658;SDS011;60181;53.258;6.932;2023-03-14T09:41:34;7.40;;;2.80;;
65658;SDS011;60181;53.258;6.932;2023-03-14T09:45:38;7.40;;;2.80;;
65658;SDS011;60181;53.258;6.932;2023-03-14T09:49:42;6.90;;;2.40;;
65658;SDS011;60181;53.258;6.932;2023-03-14T09:53:47;6.90;;;2.40;;
65658;SDS011;60181;53.258;6.932;2023-03-14T09:57:50;6.30;;;2.50;;
65658;SDS011;60181;53.258;6.932;2023-03-14T10:01:54;6.30;;;2.50;;
65658;SDS011;60181;53.258;6.932;2023-03-14T10:05:58;6.30;;;2.50;;
65658;SDS011;60181;53.258;6.932;2023-03-14T10:10:08;6.80;;;2.30;;
65658;SDS011;60181;53.258;6.932;2023-03-14T10:18:12;7.80;;;2.30;;
65658;SDS011;60181;53.258;6.932;2023-03-14T10:22:13;7.80;;;2.30;;
65658;SDS011;60181;53.258;6.932;2023-03-14T10:26:19;7.80;;;2.30;;
65658;SDS011;60181;53.258;6.932;2023-03-14T10:34:27;8.50;;;2.20;;
65658;SDS011;60181;53.258;6.932;2023-03-14T10:38:33;5.60;;;2.00;;
65658;SDS011;60181;53.258;6.932;2023-03-14T10:42:39;5.60;;;2.00;;
65658;SDS011;60181;53.258;6.932;2023-03-14T10:46:37;5.60;;;2.00;;
65658;SDS011;60181;53.258;6.932;2023-03-14T10:54:46;5.60;;;2.10;;
65658;SDS011;60181;53.258;6.932;2023-03-14T10:58:50;5.20;;;1.90;;
65658;SDS011;60181;53.258;6.932;2023-03-14T11:07:10;5.20;;;1.90;;
65658;SDS011;60181;53.258;6.932;2023-03-14T11:11:06;6.30;;;2.00;;
65658;SDS011;60181;53.258;6.932;2023-03-14T11:15:09;6.30;;;2.00;;
65658;SDS011;60181;53.258;6.932;2023-03-14T11:19:15;5.70;;;1.90;;
65658;SDS011;60181;53.258;6.932;2023-03-14T11:23:18;5.70;;;1.90;;
65658;SDS011;60181;53.258;6.932;2023-03-14T11:31:28;6.60;;;2.20;;
65658;SDS011;60181;53.258;6.932;2023-03-14T11:35:35;6.60;;;2.20;;
65658;SDS011;60181;53.258;6.932;2023-03-14T11:39:34;5.10;;;1.70;;
65658;SDS011;60181;53.258;6.932;2023-03-14T11:43:35;5.10;;;1.70;;
65658;SDS011;60181;53.258;6.932;2023-03-14T11:47:37;5.10;;;1.70;;
65658;SDS011;60181;53.258;6.932;2023-03-14T11:51:41;5.00;;;1.40;;
65658;SDS011;60181;53.258;6.932;2023-03-14T11:55:45;5.00;;;1.40;;
65658;SDS011;60181;53.258;6.932;2023-03-14T11:59:58;4.80;;;1.40;;
65658;SDS011;60181;53.258;6.932;2023-03-14T12:08:13;4.80;;;1.40;;
65658;SDS011;60181;53.258;6.932;2023-03-14T12:12:02;7.40;;;1.40;;
65658;SDS011;60181;53.258;6.932;2023-03-14T12:16:20;7.40;;;1.40;;
65658;SDS011;60181;53.258;6.932;2023-03-14T12:24:20;4.40;;;1.30;;
65658;SDS011;60181;53.258;6.932;2023-03-14T12:28:21;4.30;;;1.10;;
65658;SDS011;60181;53.258;6.932;2023-03-14T12:32:22;4.30;;;1.10;;
65658;SDS011;60181;53.258;6.932;2023-03-14T12:40:30;5.10;;;1.20;;
65658;SDS011;60181;53.258;6.932;2023-03-14T12:44:43;5.10;;;1.20;;
65658;SDS011;60181;53.258;6.932;2023-03-14T12:48:37;3.90;;;1.10;;
65658;SDS011;60181;53.258;6.932;2023-03-14T12:52:51;3.90;;;1.10;;
65658;SDS011;60181;53.258;6.932;2023-03-14T12:56:50;3.90;;;1.10;;
65658;SDS011;60181;53.258;6.932;2023-03-14T13:00:51;3.00;;;1.00;;
65658;SDS011;60181;53.258;6.932;2023-03-14T13:05:01;3.00;;;1.00;;
65658;SDS011;60181;53.258;6.932;2023-03-14T13:08:57;4.00;;;1.10;;
65658;SDS011;60181;53.258;6.932;2023-03-14T13:17:09;4.00;;;1.10;;
65658;SDS011;60181;53.258;6.932;2023-03-14T13:25:13;3.80;;;1.20;;
65658;SDS011;60181;53.258;6.932;2023-03-14T13:29:29;4.40;;;1.00;;
65658;SDS011;60181;53.258;6.932;2023-03-14T13:33:22;4.40;;;1.00;;
65658;SDS011;60181;53.258;6.932;2023-03-14T13:37:26;4.40;;;1.00;;
65658;SDS011;60181;53.258;6.932;2023-03-14T13:41:29;3.90;;;1.10;;
65658;SDS011;60181;53.258;6.932;2023-03-14T13:45:41;3.90;;;1.10;;
65658;SDS011;60181;53.258;6.932;2023-03-14T13:49:37;4.70;;;1.10;;
65658;SDS011;60181;53.258;6.932;2023-03-14T13:53:44;4.70;;;1.10;;
65658;SDS011;60181;53.258;6.932;2023-03-14T13:57:49;4.70;;;1.10;;
65658;SDS011;60181;53.258;6.932;2023-03-14T14:01:49;5.20;;;1.00;;
65658;SDS011;60181;53.258;6.932;2023-03-14T14:05:54;5.20;;;1.00;;
65658;SDS011;60181;53.258;6.932;2023-03-14T14:09:57;4.70;;;1.00;;
65658;SDS011;60181;53.258;6.932;2023-03-14T14:14:01;4.70;;;1.00;;
65658;SDS011;60181;53.258;6.932;2023-03-14T14:18:06;4.70;;;1.00;;
65658;SDS011;60181;53.258;6.932;2023-03-14T14:22:09;3.30;;;0.80;;
65658;SDS011;60181;53.258;6.932;2023-03-14T14:26:16;3.30;;;0.80;;
65658;SDS011;60181;53.258;6.932;2023-03-14T14:34:21;4.80;;;1.10;;
65658;SDS011;60181;53.258;6.932;2023-03-14T14:38:25;3.30;;;1.00;;
65658;SDS011;60181;53.258;6.932;2023-03-14T14:42:30;3.30;;;1.00;;
65658;SDS011;60181;53.258;6.932;2023-03-14T14:46:34;3.30;;;1.00;;
65658;SDS011;60181;53.258;6.932;2023-03-14T14:50:38;4.30;;;0.90;;
65658;SDS011;60181;53.258;6.932;2023-03-14T14:54:48;4.30;;;0.90;;
65658;SDS011;60181;53.258;6.932;2023-03-14T14:58:45;4.50;;;1.00;;
65658;SDS011;60181;53.258;6.932;2023-03-14T15:02:50;4.50;;;1.00;;
65658;SDS011;60181;53.258;6.932;2023-03-14T15:06:53;4.50;;;1.00;;
65658;SDS011;60181;53.258;6.932;2023-03-14T15:10:57;3.70;;;1.20;;
65658;SDS011;60181;53.258;6.932;2023-03-14T15:15:01;3.70;;;1.20;;
65658;SDS011;60181;53.258;6.932;2023-03-14T15:23:10;3.60;;;0.80;;
65658;SDS011;60181;53.258;6.932;2023-03-14T15:27:13;3.60;;;0.80;;
65658;SDS011;60181;53.258;6.932;2023-03-14T15:31:18;3.30;;;1.00;;
65658;SDS011;60181;53.258;6.932;2023-03-14T15:35:21;3.30;;;1.00;;
65658;SDS011;60181;53.258;6.932;2023-03-14T15:39:25;4.10;;;0.90;;
65658;SDS011;60181;53.258;6.932;2023-03-14T15:43:29;4.10;;;0.90;;
65658;SDS011;60181;53.258;6.932;2023-03-14T15:47:33;4.10;;;0.90;;
65658;SDS011;60181;53.258;6.932;2023-03-14T15:51:37;4.10;;;1.00;;
65658;SDS011;60181;53.258;6.932;2023-03-14T15:55:41;4.10;;;1.00;;
65658;SDS011;60181;53.258;6.932;2023-03-14T15:59:45;2.40;;;0.80;;
65658;SDS011;60181;53.258;6.932;2023-03-14T16:03:49;2.40;;;0.80;;
65658;SDS011;60181;53.258;6.932;2023-03-14T16:07:53;2.40;;;0.80;;
65658;SDS011;60181;53.258;6.932;2023-03-14T16:11:57;3.00;;;0.90;;
65658;SDS011;60181;53.258;6.932;2023-03-14T16:16:02;3.00;;;0.90;;
65658;SDS011;60181;53.258;6.932;2023-03-14T16:20:05;3.80;;;0.90;;
65658;SDS011;60181;53.258;6.932;2023-03-14T16:24:09;3.80;;;0.90;;
65658;SDS011;60181;53.258;6.932;2023-03-14T16:28:13;3.80;;;0.90;;
65658;SDS011;60181;53.258;6.932;2023-03-14T16:32:17;2.90;;;0.90;;
65658;SDS011;60181;53.258;6.932;2023-03-14T16:36:21;2.90;;;0.90;;
65658;SDS011;60181;53.258;6.932;2023-03-14T16:40:25;3.30;;;0.90;;
65658;SDS011;60181;53.258;6.932;2023-03-14T16:44:29;3.30;;;0.90;;
65658;SDS011;60181;53.258;6.932;2023-03-14T16:48:33;4.20;;;0.80;;
65658;SDS011;60181;53.258;6.932;2023-03-14T16:52:37;4.20;;;0.80;;
65658;SDS011;60181;53.258;6.932;2023-03-14T16:56:41;4.20;;;0.80;;
65658;SDS011;60181;53.258;6.932;2023-03-14T17:00:45;3.70;;;0.90;;
65658;SDS011;60181;53.258;6.932;2023-03-14T17:04:49;3.70;;;0.90;;
65658;SDS011;60181;53.258;6.932;2023-03-14T17:08:53;6.00;;;0.90;;
65658;SDS011;60181;53.258;6.932;2023-03-14T17:12:57;6.00;;;0.90;;
65658;SDS011;60181;53.258;6.932;2023-03-14T17:17:01;6.00;;;0.90;;
65658;SDS011;60181;53.258;6.932;2023-03-14T17:21:05;2.30;;;0.80;;
65658;SDS011;60181;53.258;6.932;2023-03-14T17:25:09;2.30;;;0.80;;
65658;SDS011;60181;53.258;6.932;2023-03-14T17:29:13;3.90;;;1.10;;
65658;SDS011;60181;53.258;6.932;2023-03-14T17:33:17;3.90;;;1.10;;
65658;SDS011;60181;53.258;6.932;2023-03-14T17:37:21;3.90;;;1.10;;
65658;SDS011;60181;53.258;6.932;2023-03-14T17:41:25;3.40;;;0.90;;
65658;SDS011;60181;53.258;6.932;2023-03-14T17:45:29;3.40;;;0.90;;
65658;SDS011;60181;53.258;6.932;2023-03-14T17:49:33;5.00;;;1.00;;
65658;SDS011;60181;53.258;6.932;2023-03-14T17:53:37;5.00;;;1.00;;
65658;SDS011;60181;53.258;6.932;2023-03-14T17:57:41;5.00;;;1.00;;
65658;SDS011;60181;53.258;6.932;2023-03-14T18:01:45;3.20;;;0.90;;
65658;SDS011;60181;53.258;6.932;2023-03-14T18:05:49;3.20;;;0.90;;
65658;SDS011;60181;53.258;6.932;2023-03-14T18:09:53;3.10;;;0.80;;
65658;SDS011;60181;53.258;6.932;2023-03-14T18:13:57;3.10;;;0.80;;
65658;SDS011;60181;53.258;6.932;2023-03-14T18:18:01;3.10;;;0.80;;
65658;SDS011;60181;53.258;6.932;2023-03-14T18:22:05;5.10;;;0.90;;
65658;SDS011;60181;53.258;6.932;2023-03-14T18:26:09;5.10;;;0.90;;
65658;SDS011;60181;53.258;6.932;2023-03-14T18:30:13;4.60;;;0.90;;
65658;SDS011;60181;53.258;6.932;2023-03-14T18:34:17;4.60;;;0.90;;
65658;SDS011;60181;53.258;6.932;2023-03-14T18:38:21;4.90;;;0.90;;
65658;SDS011;60181;53.258;6.932;2023-03-14T18:42:25;4.90;;;0.90;;
65658;SDS011;60181;53.258;6.932;2023-03-14T18:46:29;4.90;;;0.90;;
65658;SDS011;60181;53.258;6.932;2023-03-14T18:50:33;2.70;;;0.80;;
65658;SDS011;60181;53.258;6.932;2023-03-14T18:54:37;2.70;;;0.80;;
65658;SDS011;60181;53.258;6.932;2023-03-14T18:58:41;4.30;;;0.80;;
65658;SDS011;60181;53.258;6.932;2023-03-14T19:02:45;4.30;;;0.80;;
65658;SDS011;60181;53.258;6.932;2023-03-14T19:06:49;4.30;;;0.80;;
65658;SDS011;60181;53.258;6.932;2023-03-14T19:10:54;3.90;;;0.90;;
65658;SDS011;60181;53.258;6.932;2023-03-14T19:14:57;3.90;;;0.90;;
65658;SDS011;60181;53.258;6.932;2023-03-14T19:19:01;3.40;;;0.90;;
65658;SDS011;60181;53.258;6.932;2023-03-14T19:23:05;3.40;;;0.90;;
65658;SDS011;60181;53.258;6.932;2023-03-14T19:27:09;3.40;;;0.90;;
65658;SDS011;60181;53.258;6.932;2023-03-14T19:31:13;5.30;;;0.80;;
65658;SDS011;60181;53.258;6.932;2023-03-14T19:35:17;5.30;;;0.80;;
65658;SDS011;60181;53.258;6.932;2023-03-14T19:39:21;4.30;;;0.80;;
65658;SDS011;60181;53.258;6.932;2023-03-14T19:43:25;4.30;;;0.80;;
65658;SDS011;60181;53.258;6.932;2023-03-14T19:47:29;4.30;;;0.80;;
65658;SDS011;60181;53.258;6.932;2023-03-14T19:51:32;4.40;;;0.90;;
65658;SDS011;60181;53.258;6.932;2023-03-14T19:55:37;4.40;;;0.90;;
65658;SDS011;60181;53.258;6.932;2023-03-14T19:59:40;4.60;;;0.90;;
65658;SDS011;60181;53.258;6.932;2023-03-14T20:03:44;4.60;;;0.90;;
65658;SDS011;60181;53.258;6.932;2023-03-14T20:07:48;4.60;;;0.90;;
65658;SDS011;60181;53.258;6.932;2023-03-14T20:11:52;3.50;;;0.80;;
65658;SDS011;60181;53.258;6.932;2023-03-14T20:15:57;3.50;;;0.80;;
65658;SDS011;60181;53.258;6.932;2023-03-14T20:20:01;5.40;;;1.00;;
65658;SDS011;60181;53.258;6.932;2023-03-14T20:24:05;5.40;;;1.00;;
65658;SDS011;60181;53.258;6.932;2023-03-14T20:28:08;5.40;;;1.00;;
65658;SDS011;60181;53.258;6.932;2023-03-14T20:32:12;6.70;;;0.90;;
65658;SDS011;60181;53.258;6.932;2023-03-14T20:36:16;6.70;;;0.90;;
65658;SDS011;60181;53.258;6.932;2023-03-14T20:40:21;4.20;;;1.00;;
65658;SDS011;60181;53.258;6.932;2023-03-14T20:44:24;4.20;;;1.00;;
65658;SDS011;60181;53.258;6.932;2023-03-14T20:48:29;5.10;;;0.90;;
65658;SDS011;60181;53.258;6.932;2023-03-14T20:52:32;5.10;;;0.90;;
65658;SDS011;60181;53.258;6.932;2023-03-14T20:56:36;5.10;;;0.90;;
65658;SDS011;60181;53.258;6.932;2023-03-14T21:00:44;3.60;;;1.00;;
65658;SDS011;60181;53.258;6.932;2023-03-14T21:04:44;3.60;;;1.00;;
65658;SDS011;60181;53.258;6.932;2023-03-14T21:08:48;3.20;;;0.90;;
65658;SDS011;60181;53.258;6.932;2023-03-14T21:12:52;3.20;;;0.90;;
65658;SDS011;60181;53.258;6.932;2023-03-14T21:16:56;3.20;;;0.90;;
65658;SDS011;60181;53.258;6.932;2023-03-14T21:21:00;4.50;;;1.00;;
65658;SDS011;60181;53.258;6.932;2023-03-14T21:25:05;4.50;;;1.00;;
65658;SDS011;60181;53.258;6.932;2023-03-14T21:29:08;4.50;;;1.10;;
65658;SDS011;60181;53.258;6.932;2023-03-14T21:33:12;4.50;;;1.10;;
65658;SDS011;60181;53.258;6.932;2023-03-14T21:37:16;4.50;;;1.10;;
65658;SDS011;60181;53.258;6.932;2023-03-14T21:41:20;3.80;;;1.00;;
65658;SDS011;60181;53.258;6.932;2023-03-14T21:45:25;3.80;;;1.00;;
65658;SDS011;60181;53.258;6.932;2023-03-14T21:49:28;2.50;;;0.80;;
65658;SDS011;60181;53.258;6.932;2023-03-14T21:53:33;2.50;;;0.80;;
65658;SDS011;60181;53.258;6.932;2023-03-14T21:57:36;2.50;;;0.80;;
65658;SDS011;60181;53.258;6.932;2023-03-14T22:01:41;2.50;;;0.90;;
65658;SDS011;60181;53.258;6.932;2023-03-14T22:05:45;2.50;;;0.90;;
65658;SDS011;60181;53.258;6.932;2023-03-14T22:09:48;4.30;;;1.00;;
65658;SDS011;60181;53.258;6.932;2023-03-14T22:13:52;4.30;;;1.00;;
65658;SDS011;60181;53.258;6.932;2023-03-14T22:17:56;4.30;;;1.00;;
65658;SDS011;60181;53.258;6.932;2023-03-14T22:22:00;4.40;;;1.20;;
65658;SDS011;60181;53.258;6.932;2023-03-14T22:26:04;4.40;;;1.20;;
65658;SDS011;60181;53.258;6.932;2023-03-14T22:30:09;2.30;;;0.90;;
65658;SDS011;60181;53.258;6.932;2023-03-14T22:34:12;2.30;;;0.90;;
65658;SDS011;60181;53.258;6.932;2023-03-14T22:38:16;2.30;;;0.90;;
65658;SDS011;60181;53.258;6.932;2023-03-14T22:42:20;3.80;;;1.10;;
65658;SDS011;60181;53.258;6.932;2023-03-14T22:46:24;3.80;;;1.10;;
65658;SDS011;60181;53.258;6.932;2023-03-14T22:50:28;7.30;;;1.20;;
65658;SDS011;60181;53.258;6.932;2023-03-14T22:54:32;7.30;;;1.20;;
65658;SDS011;60181;53.258;6.932;2023-03-14T22:58:36;6.80;;;1.30;;
65658;SDS011;60181;53.258;6.932;2023-03-14T23:02:40;6.80;;;1.30;;
65658;SDS011;60181;53.258;6.932;2023-03-14T23:06:44;6.80;;;1.30;;
65658;SDS011;60181;53.258;6.932;2023-03-14T23:10:48;5.90;;;1.40;;
65658;SDS011;60181;53.258;6.932;2023-03-14T23:14:52;5.90;;;1.40;;
65658;SDS011;60181;53.258;6.932;2023-03-14T23:18:56;6.30;;;1.40;;
65658;SDS011;60181;53.258;6.932;2023-03-14T23:23:00;6.30;;;1.40;;
65658;SDS011;60181;53.258;6.932;2023-03-14T23:27:04;6.30;;;1.40;;
65658;SDS011;60181;53.258;6.932;2023-03-14T23:31:08;6.50;;;1.30;;
65658;SDS011;60181;53.258;6.932;2023-03-14T23:35:13;6.50;;;1.30;;
65658;SDS011;60181;53.258;6.932;2023-03-14T23:39:16;5.10;;;1.20;;
65658;SDS011;60181;53.258;6.932;2023-03-14T23:43:20;5.10;;;1.20;;
65658;SDS011;60181;53.258;6.932;2023-03-14T23:47:24;5.10;;;1.20;;
65658;SDS011;60181;53.258;6.932;2023-03-14T23:51:28;6.20;;;1.30;;
65658;SDS011;60181;53.258;6.932;2023-03-14T23:55:32;6.20;;;1.30;;
65658;SDS011;60181;53.258;6.932;2023-03-14T23:59:36;7.30;;;1.30;;
